createdAt,value
2023-02-23T00:02:21.434Z,95197.22
2023-02-23T00:04:50.171Z,95203.16
2023-02-23T00:07:21.021Z,95195.09
2023-02-23T00:09:49.500Z,95205.84
2023-02-23T00:12:20.956Z,95203.72
2023-02-23T00:14:49.223Z,95146.88
2023-02-23T00:17:20.052Z,95205.84
2023-02-23T00:19:49.607Z,95147.16
2023-02-23T00:22:18.580Z,95157.56
2023-02-23T00:24:47.982Z,95187.03
2023-02-23T00:27:20.509Z,95119.78
2023-02-23T00:29:51.217Z,95180.31
2023-02-23T00:32:20.935Z,95195.84
2023-02-23T00:34:50.612Z,95190.47
2023-02-23T00:37:19.599Z,95195.03
2023-02-23T00:39:47.963Z,95190.75
2023-02-23T00:42:16.272Z,95186.16
2023-02-23T00:44:44.578Z,95185.06
2023-02-23T00:47:14.309Z,95189.13
2023-02-23T00:49:45.145Z,95188.31
2023-02-23T00:52:14.916Z,95188.06
2023-02-23T00:54:43.555Z,95184.81
2023-02-23T00:57:12.014Z,95176.50
2023-02-23T00:59:40.419Z,95185.94
2023-02-23T01:02:08.935Z,95173.59
2023-02-23T01:04:38.947Z,95173.25
2023-02-23T01:07:07.430Z,95178.13
2023-02-23T01:09:35.712Z,95181.09
2023-02-23T01:12:07.687Z,95190.28
2023-02-23T01:14:37.838Z,95122.81
2023-02-23T01:17:06.346Z,95183.88
2023-02-23T01:19:35.040Z,95192.44
2023-02-23T01:22:04.802Z,95182.78
2023-02-23T01:24:33.126Z,95173.63
2023-02-23T01:27:01.487Z,95180.63
2023-02-23T01:29:29.835Z,95179.00
2023-02-23T01:31:58.192Z,95175.81
2023-02-23T01:34:27.145Z,95182.78
2023-02-23T01:36:55.487Z,95181.69
2023-02-23T01:39:25.284Z,95176.31
2023-02-23T01:41:54.545Z,95151.69
2023-02-23T01:44:59.759Z,95184.34
2023-02-23T01:47:28.126Z,95179.28
2023-02-23T01:49:56.642Z,95187.06
2023-02-23T01:52:25.271Z,95182.00
2023-02-23T01:54:57.196Z,95147.44
2023-02-23T01:57:27.186Z,95208.09
2023-02-23T01:59:56.458Z,95181.22
2023-02-23T02:02:33.976Z,95180.41
2023-02-23T02:05:05.135Z,95171.28
2023-02-23T02:07:36.449Z,95175.28
2023-02-23T02:10:24.624Z,95176.91
2023-02-23T02:12:56.828Z,95178.53
2023-02-23T02:15:30.140Z,95175.00
2023-02-23T02:18:09.455Z,95179.00
2023-02-23T02:21:06.361Z,95170.13
2023-02-23T02:24:03.072Z,95169.06
2023-02-23T02:26:46.437Z,95160.47
2023-02-23T02:29:47.918Z,95155.41
2023-02-23T02:32:55.499Z,95169.91
2023-02-23T02:36:07.905Z,95168.88
2023-02-23T02:38:51.220Z,95171.81
2023-02-23T02:41:28.160Z,95166.19
2023-02-23T02:44:02.154Z,95151.16
2023-02-23T02:46:36.335Z,95165.34
2023-02-23T02:49:09.431Z,95108.28
2023-02-23T02:51:45.527Z,95166.66
2023-02-23T02:54:25.310Z,95167.22
2023-02-23T02:56:57.814Z,95170.69
2023-02-23T02:59:43.956Z,95127.81
2023-02-23T03:02:35.058Z,95167.72
2023-02-23T03:05:20.914Z,95171.78
2023-02-23T03:08:17.319Z,95153.78
2023-02-23T03:11:10.844Z,95175.53
2023-02-23T03:14:08.285Z,95164.53
2023-02-23T03:17:01.922Z,95176.91
2023-02-23T03:19:50.690Z,95168.88
2023-02-23T03:22:42.121Z,95178.53
2023-02-23T03:25:33.298Z,95178.00
2023-02-23T03:28:30.023Z,95175.31
2023-02-23T03:31:24.530Z,95181.75
2023-02-23T03:34:15.027Z,95176.38
2023-02-23T03:37:06.951Z,95179.63
2023-02-23T03:39:56.499Z,95173.16
2023-02-23T03:42:47.216Z,95170.19
2023-02-23T03:45:38.324Z,95173.69
2023-02-23T03:48:27.862Z,95174.81
2023-02-23T03:51:16.035Z,95153.59
2023-02-23T03:54:09.589Z,95174.81
2023-02-23T03:57:00.701Z,95177.75
2023-02-23T03:59:51.380Z,95164.59
2023-02-23T04:02:41.459Z,95164.09
2023-02-23T04:05:31.166Z,95166.75
2023-02-23T04:08:20.245Z,95175.34
2023-02-23T04:11:10.751Z,95166.75
2023-02-23T04:13:40.648Z,95166.22
2023-02-23T04:16:09.537Z,95175.91
2023-02-23T04:18:41.283Z,95175.91
2023-02-23T04:21:09.631Z,95177.50
2023-02-23T04:23:40.960Z,95179.66
2023-02-23T04:26:09.331Z,95174.03
2023-02-23T04:28:37.591Z,95171.63
2023-02-23T04:31:06.473Z,95176.19
2023-02-23T04:33:34.777Z,95176.44
2023-02-23T04:36:04.642Z,95181.03
2023-02-23T04:38:32.938Z,95175.94
2023-02-23T04:41:01.233Z,95166.84
2023-02-23T04:43:29.644Z,95179.13
2023-02-23T04:45:58.124Z,95175.94
2023-02-23T04:48:26.930Z,95176.75
2023-02-23T04:50:55.435Z,95175.94
2023-02-23T04:53:27.297Z,95172.44
2023-02-23T04:55:55.781Z,95175.13
2023-02-23T04:58:24.455Z,95177.03
2023-02-23T05:00:52.731Z,95178.34
2023-02-23T05:03:21.107Z,95179.72
2023-02-23T05:05:49.478Z,95178.91
2023-02-23T05:08:17.786Z,95176.50
2023-02-23T05:10:49.388Z,95180.81
2023-02-23T05:13:17.653Z,95181.88
2023-02-23T05:15:46.055Z,95181.88
2023-02-23T05:18:14.461Z,95160.97
2023-02-23T05:20:45.348Z,95183.75
2023-02-23T05:23:13.777Z,95175.47
2023-02-23T05:25:42.101Z,95185.41
2023-02-23T05:28:11.949Z,95181.38
2023-02-23T05:30:40.371Z,95191.59
2023-02-23T05:33:09.120Z,95193.75
2023-02-23T05:35:40.633Z,95190.00
2023-02-23T05:38:09.030Z,95186.78
2023-02-23T05:40:38.326Z,95186.78
2023-02-23T05:43:06.635Z,95188.66
2023-02-23T05:45:36.503Z,95202.34
2023-02-23T05:48:04.813Z,95189.47
2023-02-23T05:50:33.497Z,95182.75
2023-02-23T05:53:01.774Z,95185.13
2023-02-23T05:55:30.073Z,95180.03
2023-02-23T05:57:58.704Z,95181.91
2023-02-23T06:00:27.144Z,95189.41
2023-02-23T06:02:56.933Z,95185.91
2023-02-23T06:05:25.279Z,95180.03
2023-02-23T06:07:54.062Z,95177.06
2023-02-23T06:10:22.460Z,95194.28
2023-02-23T06:12:50.854Z,95192.16
2023-02-23T06:15:19.435Z,95190.00
2023-02-23T06:17:47.742Z,95190.56
2023-02-23T06:20:17.631Z,95192.13
2023-02-23T06:22:46.374Z,95197.50
2023-02-23T06:25:15.248Z,95194.81
2023-02-23T06:27:45.610Z,95183.84
2023-02-23T06:30:14.501Z,95205.56
2023-02-23T06:32:43.492Z,95208.25
2023-02-23T06:35:12.307Z,95217.13
2023-02-23T06:37:42.252Z,95205.84
2023-02-23T06:40:11.762Z,95197.81
2023-02-23T06:42:40.149Z,95209.34
2023-02-23T06:45:09.311Z,95194.59
2023-02-23T06:47:37.883Z,95213.38
2023-02-23T06:50:07.228Z,95175.03
2023-02-23T06:52:35.664Z,95214.44
2023-02-23T06:55:06.082Z,95211.22
2023-02-23T06:57:34.468Z,95212.28
2023-02-23T07:00:03.261Z,95220.06
2023-02-23T07:02:31.520Z,95205.59
2023-02-23T07:05:00.363Z,95229.75
2023-02-23T07:07:28.735Z,95234.28
2023-02-23T07:09:57.059Z,95187.91
2023-02-23T07:12:27.610Z,95224.38
2023-02-23T07:14:56.574Z,95237.25
2023-02-23T07:17:25.082Z,95232.09
2023-02-23T07:19:53.382Z,95224.59
2023-02-23T07:22:22.427Z,95229.69
2023-02-23T07:24:50.917Z,95232.88
2023-02-23T07:27:19.888Z,95222.44
2023-02-23T07:29:49.669Z,95236.94
2023-02-23T07:32:18.081Z,95239.34
2023-02-23T07:34:48.059Z,95234.78
2023-02-23T07:37:17.185Z,95237.72
2023-02-23T07:39:45.797Z,95240.94
2023-02-23T07:42:14.399Z,95232.88
2023-02-23T07:44:42.778Z,95233.41
2023-02-23T07:47:12.943Z,95230.47
2023-02-23T07:49:41.258Z,95243.63
2023-02-23T07:52:09.505Z,95246.81
2023-02-23T07:54:37.817Z,95244.69
2023-02-23T07:57:06.199Z,95244.13
2023-02-23T07:59:34.607Z,95247.34
2023-02-23T08:02:03.063Z,95241.97
2023-02-23T08:04:35.527Z,95247.88
2023-02-23T08:07:04.787Z,95253.78
2023-02-23T08:09:35.281Z,95233.88
2023-02-23T08:12:03.871Z,95251.06
2023-02-23T08:14:32.151Z,95252.16
2023-02-23T08:17:01.844Z,95223.19
2023-02-23T08:19:30.610Z,95262.06
2023-02-23T08:22:00.629Z,95259.09
2023-02-23T08:24:29.931Z,95260.69
2023-02-23T08:26:58.373Z,95207.59
2023-02-23T08:29:26.742Z,95234.88
2023-02-23T08:31:56.357Z,95259.84
2023-02-23T08:34:25.280Z,95258.75
2023-02-23T08:36:54.216Z,95244.00
2023-02-23T08:39:24.293Z,95252.00
2023-02-23T08:41:52.799Z,95254.72
2023-02-23T08:44:21.094Z,95247.22
2023-02-23T08:46:49.377Z,95247.72
2023-02-23T08:49:17.811Z,95243.41
2023-02-23T08:51:48.110Z,95213.06
2023-02-23T08:54:17.410Z,95240.06
2023-02-23T08:56:47.262Z,95251.91
2023-02-23T08:59:16.073Z,95245.97
2023-02-23T09:01:46.053Z,95247.47
2023-02-23T09:04:14.466Z,95217.97
2023-02-23T09:06:42.916Z,95252.31
2023-02-23T09:09:11.437Z,95258.97
2023-02-23T09:11:40.004Z,95170.97
2023-02-23T09:14:09.983Z,95243.13
2023-02-23T09:16:38.527Z,95245.19
2023-02-23T09:19:08.466Z,95257.44
2023-02-23T09:21:37.899Z,95237.00
2023-02-23T09:24:06.652Z,95237.47
2023-02-23T09:26:35.917Z,95255.63
2023-02-23T09:29:04.349Z,95219.47
2023-02-23T09:31:34.742Z,95206.28
2023-02-23T09:34:03.222Z,95266.78
2023-02-23T09:36:32.550Z,95243.78
2023-02-23T09:39:01.599Z,95219.84
2023-02-23T09:41:52.410Z,95265.38
2023-02-23T09:44:37.388Z,95263.94
2023-02-23T09:47:19.068Z,95173.56
2023-02-23T09:49:49.723Z,95258.69
2023-02-23T09:52:21.638Z,95262.81
2023-02-23T09:54:50.359Z,95249.81
2023-02-23T09:57:22.771Z,95262.94
2023-02-23T09:59:51.256Z,95261.25
2023-02-23T10:02:31.228Z,95254.59
2023-02-23T10:05:04.136Z,95268.47
2023-02-23T10:07:43.622Z,95266.56
2023-02-23T10:10:26.435Z,95256.56
2023-02-23T10:13:05.463Z,95268.09
2023-02-23T10:15:41.434Z,95271.75
2023-02-23T10:18:27.023Z,95267.16
2023-02-23T10:21:06.782Z,95267.75
2023-02-23T10:23:40.065Z,95235.56
2023-02-23T10:26:09.481Z,95230.59
2023-02-23T10:28:39.254Z,95244.72
2023-02-23T10:31:26.614Z,95255.13
2023-02-23T10:34:00.094Z,95268.19
2023-02-23T10:36:36.288Z,95268.19
2023-02-23T10:39:08.220Z,95224.03
2023-02-23T10:41:38.456Z,95290.91
2023-02-23T10:44:16.958Z,95280.13
2023-02-23T10:46:47.728Z,95241.38
2023-02-23T10:49:22.673Z,95267.09
2023-02-23T10:51:53.192Z,95270.63
2023-02-23T10:54:44.867Z,95273.84
2023-02-23T10:57:20.603Z,95251.19
2023-02-23T11:00:20.480Z,95268.59
2023-02-23T11:02:50.626Z,95265.19
2023-02-23T11:05:46.270Z,95271.16
2023-02-23T11:08:28.483Z,95265.78
2023-02-23T11:11:30.383Z,95276.06
2023-02-23T11:13:59.714Z,95271.38
2023-02-23T11:16:32.449Z,95274.50
2023-02-23T11:19:03.448Z,95272.72
2023-02-23T11:21:35.022Z,95261.50
2023-02-23T11:24:20.088Z,95269.22
2023-02-23T11:26:51.818Z,95272.47
2023-02-23T11:29:28.505Z,95267.19
2023-02-23T11:31:59.789Z,95272.63
2023-02-23T11:34:31.535Z,95259.50
2023-02-23T11:37:04.092Z,95275.28
2023-02-23T11:39:33.121Z,95274.22
2023-02-23T11:42:19.453Z,95265.31
2023-02-23T11:44:53.186Z,95266.91
2023-02-23T11:47:23.135Z,95266.25
2023-02-23T11:49:52.608Z,95264.56
2023-02-23T11:52:26.202Z,95268.59
2023-02-23T11:54:57.952Z,95254.84
2023-02-23T11:57:29.501Z,95259.94
2023-02-23T11:59:59.043Z,95261.25
2023-02-23T12:02:29.251Z,95265.53
2023-02-23T12:05:08.505Z,95248.34
2023-02-23T12:07:46.544Z,95229.66
2023-02-23T12:10:22.315Z,95259.13
2023-02-23T12:13:02.104Z,95266.06
2023-02-23T12:15:37.173Z,95246.56
2023-02-23T12:18:14.307Z,95253.78
2023-02-23T12:20:45.713Z,95256.50
2023-02-23T12:23:20.642Z,95205.81
2023-02-23T12:25:54.038Z,95252.41
2023-02-23T12:28:29.543Z,95222.41
2023-02-23T12:31:02.234Z,95245.34
2023-02-23T12:33:35.533Z,95244.53
2023-02-23T12:36:13.554Z,95208.13
2023-02-23T12:38:52.238Z,95242.84
2023-02-23T12:41:33.779Z,95213.47
2023-02-23T12:44:15.459Z,95242.69
2023-02-23T12:46:49.160Z,95231.25
2023-02-23T12:49:20.533Z,95239.00
2023-02-23T12:51:55.148Z,95220.19
2023-02-23T12:54:26.084Z,95238.41
2023-02-23T12:57:09.672Z,95237.19
2023-02-23T13:00:31.306Z,95227.22
2023-02-23T13:03:24.891Z,95244.22
2023-02-23T13:06:02.051Z,95196.97
2023-02-23T13:08:39.779Z,95230.25
2023-02-23T13:11:18.539Z,95202.69
2023-02-23T13:13:56.149Z,95231.53
2023-02-23T13:16:32.350Z,95212.66
2023-02-23T13:19:12.101Z,95234.00
2023-02-23T13:21:46.059Z,95218.16
2023-02-23T13:24:20.733Z,95232.66
2023-02-23T13:27:01.308Z,95221.84
2023-02-23T13:29:39.190Z,95223.69
2023-02-23T13:32:15.641Z,95213.72
2023-02-23T13:34:47.684Z,95215.53
2023-02-23T13:37:20.645Z,95213.03
2023-02-23T13:40:00.163Z,95214.03
2023-02-23T13:42:42.609Z,95178.00
2023-02-23T13:45:33.452Z,95213.69
2023-02-23T13:48:08.188Z,95179.19
2023-02-23T13:50:46.811Z,95214.19
2023-02-23T13:53:34.144Z,95206.59
2023-02-23T13:56:07.170Z,95199.47
2023-02-23T13:58:38.190Z,95214.44
2023-02-23T14:01:11.826Z,95218.44
2023-02-23T14:03:46.504Z,95216.72
2023-02-23T14:06:19.416Z,95214.50
2023-02-23T14:08:55.045Z,95208.13
2023-02-23T14:11:36.770Z,94981.28
2023-02-23T14:14:08.145Z,95215.28
2023-02-23T14:16:37.399Z,95183.16
2023-02-23T14:19:13.967Z,95207.25
2023-02-23T14:21:52.538Z,95203.94
2023-02-23T14:24:24.302Z,95205.63
2023-02-23T14:27:40.006Z,95216.41
2023-02-23T14:30:25.574Z,95201.19
2023-02-23T14:32:55.321Z,95204.19
2023-02-23T14:35:46.314Z,95205.81
2023-02-23T14:38:38.783Z,95213.09
2023-02-23T14:41:14.423Z,95185.97
2023-02-23T14:43:47.358Z,95208.47
2023-02-23T14:46:21.877Z,95205.72
2023-02-23T14:49:08.108Z,95186.97
2023-02-23T14:51:42.465Z,95190.34
2023-02-23T14:54:24.448Z,95170.38
2023-02-23T14:56:56.889Z,95207.13
2023-02-23T14:59:28.555Z,95198.25
2023-02-23T15:02:02.048Z,95189.66
2023-02-23T15:04:31.763Z,95191.41
2023-02-23T15:07:03.774Z,95202.47
2023-02-23T15:09:36.527Z,95180.16
2023-02-23T15:12:15.601Z,95168.00
2023-02-23T15:14:44.744Z,95160.22
2023-02-23T15:17:20.960Z,95189.25
2023-02-23T15:19:56.140Z,95070.97
2023-02-23T15:22:28.956Z,95184.41
2023-02-23T15:24:59.408Z,95187.44
2023-02-23T15:27:38.414Z,95137.63
2023-02-23T15:30:27.737Z,95176.47
2023-02-23T15:33:06.128Z,95200.88
2023-02-23T15:35:42.457Z,95193.34
2023-02-23T15:38:17.931Z,95160.25
2023-02-23T15:40:47.494Z,95196.63
2023-02-23T15:43:16.094Z,95198.81
2023-02-23T15:45:49.901Z,95191.03
2023-02-23T15:48:24.907Z,95190.50
2023-02-23T15:50:57.705Z,95194.56
2023-02-23T15:53:30.536Z,95184.19
2023-02-23T15:56:04.886Z,95194.81
2023-02-23T15:58:44.566Z,95165.94
2023-02-23T16:01:24.952Z,95200.81
2023-02-23T16:04:01.708Z,95200.81
2023-02-23T16:06:37.189Z,95191.97
2023-02-23T16:09:21.047Z,95168.13
2023-02-23T16:11:50.586Z,95194.28
2023-02-23T16:14:20.941Z,95194.25
2023-02-23T16:17:01.333Z,95160.47
2023-02-23T16:19:41.742Z,95195.34
2023-02-23T16:22:21.838Z,95178.44
2023-02-23T16:24:59.721Z,95201.34
2023-02-23T16:27:29.890Z,95202.63
2023-02-23T16:30:01.686Z,95207.25
2023-02-23T16:32:46.377Z,95191.13
2023-02-23T16:35:21.750Z,95208.34
2023-02-23T16:38:13.138Z,95204.88
2023-02-23T16:40:41.653Z,95208.91
2023-02-23T16:43:11.095Z,95213.78
2023-02-23T16:45:40.837Z,95216.75
2023-02-23T16:48:14.568Z,95213.25
2023-02-23T16:50:45.669Z,95214.41
2023-02-23T16:53:14.786Z,95216.28
2023-02-23T16:55:49.927Z,95218.72
2023-02-23T16:58:21.126Z,95188.94
2023-02-23T17:00:49.488Z,95217.34
2023-02-23T17:03:21.960Z,95217.66
2023-02-23T17:05:52.727Z,95218.69
2023-02-23T17:08:21.133Z,95213.84
2023-02-23T17:10:52.969Z,95219.78
2023-02-23T17:13:22.900Z,95214.41
2023-02-23T17:15:53.908Z,95213.06
2023-02-23T17:20:55.911Z,95208.00
2023-02-23T17:23:27.133Z,95213.38
2023-02-23T17:25:56.104Z,95204.25
2023-02-23T17:28:24.945Z,95215.00
2023-02-23T17:30:54.324Z,95217.94
2023-02-23T17:33:23.328Z,95215.50
2023-02-23T17:35:51.615Z,95218.81
2023-02-23T17:38:21.848Z,95221.53
2023-02-23T17:40:50.192Z,95222.09
2023-02-23T17:43:21.591Z,95210.22
2023-02-23T17:45:51.378Z,95222.09
2023-02-23T17:48:19.727Z,95212.41
2023-02-23T17:50:48.276Z,95212.91
2023-02-23T17:53:16.584Z,95218.84
2023-02-23T17:55:46.703Z,95222.09
2023-02-23T17:58:15.670Z,95220.25
2023-02-23T18:00:43.987Z,95212.72
2023-02-23T18:03:12.411Z,95221.03
2023-02-23T18:05:40.740Z,95216.22
2023-02-23T18:08:09.095Z,95220.00
2023-02-23T18:10:37.817Z,95211.16
2023-02-23T18:13:07.827Z,95222.94
2023-02-23T18:15:36.183Z,95221.03
2023-02-23T18:18:05.011Z,95222.13
2023-02-23T18:20:33.296Z,95217.84
2023-02-23T18:23:01.574Z,95224.81
2023-02-23T18:25:30.941Z,95220.25
2023-02-23T18:28:00.248Z,95223.75
2023-02-23T18:30:30.246Z,95215.16
2023-02-23T18:33:00.883Z,95217.84
2023-02-23T18:35:29.469Z,95217.28
2023-02-23T18:37:58.619Z,95214.88
2023-02-23T18:40:27.487Z,95201.22
2023-02-23T18:42:57.541Z,95210.56
2023-02-23T18:45:26.171Z,95216.47
2023-02-23T18:47:56.342Z,95216.22
2023-02-23T18:50:26.518Z,95186.72
2023-02-23T18:52:56.833Z,95206.28
2023-02-23T18:55:25.758Z,95198.50
2023-02-23T18:57:54.356Z,95199.53
2023-02-23T19:00:23.741Z,95207.06
2023-02-23T19:02:52.684Z,95211.38
2023-02-23T19:05:23.075Z,95213.81
2023-02-23T19:07:51.445Z,95166.34
2023-02-23T19:10:20.143Z,95207.13
2023-02-23T19:12:48.492Z,95206.06
2023-02-23T19:15:17.184Z,95210.94
2023-02-23T19:17:47.545Z,95188.97
2023-02-23T19:20:17.803Z,95210.41
2023-02-23T19:22:50.228Z,95212.59
2023-02-23T19:25:19.986Z,95204.53
2023-02-23T19:27:50.134Z,95168.59
2023-02-23T19:30:20.068Z,95196.75
2023-02-23T19:32:50.078Z,95203.47
2023-02-23T19:35:19.926Z,95198.63
2023-02-23T19:37:53.514Z,95191.63
2023-02-23T19:40:29.209Z,95186.84
2023-02-23T19:42:59.627Z,95207.25
2023-02-23T19:45:29.317Z,95207.25
2023-02-23T19:47:58.887Z,95201.84
2023-02-23T19:50:29.028Z,95208.28
2023-02-23T19:53:03.660Z,95195.44
2023-02-23T19:55:33.403Z,95200.78
2023-02-23T19:58:03.212Z,95201.59
2023-02-23T20:00:33.401Z,95213.94
2023-02-23T20:03:06.940Z,95199.16
2023-02-23T20:05:42.771Z,95206.69
2023-02-23T20:08:14.166Z,95191.69
2023-02-23T20:10:44.660Z,95210.16
2023-02-23T20:13:14.429Z,95213.66
2023-02-23T20:15:44.205Z,95219.56
2023-02-23T20:18:14.802Z,95214.47
2023-02-23T20:20:44.754Z,95210.47
2023-02-23T20:23:16.968Z,95214.19
2023-02-23T20:25:46.593Z,95219.56
2023-02-23T20:28:15.579Z,95219.03
2023-02-23T20:30:49.732Z,95176.91
2023-02-23T20:33:19.291Z,95155.69
2023-02-23T20:35:49.636Z,95200.78
2023-02-23T20:38:19.384Z,95218.47
2023-02-23T20:40:51.125Z,95150.59
2023-02-23T20:43:20.100Z,95212.59
2023-02-23T20:45:50.155Z,95087.03
2023-02-23T20:48:18.583Z,95205.63
2023-02-23T20:50:48.269Z,95211.00
2023-02-23T20:53:18.431Z,95209.13
2023-02-23T20:55:48.607Z,95207.78
2023-02-23T20:58:18.027Z,95212.84
2023-02-23T21:00:47.645Z,95205.34
2023-02-23T21:03:16.220Z,95202.94
2023-02-23T21:05:44.827Z,95201.06
2023-02-23T21:08:13.865Z,95204.00
2023-02-23T21:10:43.936Z,95209.91
2023-02-23T21:13:14.232Z,95206.69
2023-02-23T21:15:45.514Z,95207.22
2023-02-23T21:18:14.964Z,95204.81
2023-02-23T21:20:43.524Z,95202.38
2023-02-23T21:23:13.201Z,95202.38
2023-02-23T21:25:42.778Z,95203.72
2023-02-23T21:28:11.572Z,95179.56
2023-02-23T21:30:41.320Z,95200.00
2023-02-23T21:33:11.140Z,95189.25
2023-02-23T21:35:41.125Z,95200.25
2023-02-23T21:38:11.250Z,95200.78
2023-02-23T21:40:42.758Z,95195.69
2023-02-23T21:43:13.959Z,95197.56
2023-02-23T21:45:47.169Z,95200.25
2023-02-23T21:48:15.554Z,95190.31
2023-02-23T21:50:43.924Z,95193.28
2023-02-23T21:53:12.884Z,95188.44
2023-02-23T21:55:41.393Z,95184.69
2023-02-23T21:58:10.020Z,95172.91
2023-02-23T22:00:39.465Z,95190.59
2023-02-23T22:03:09.670Z,95181.47
2023-02-23T22:05:37.978Z,95187.38
2023-02-23T22:08:06.600Z,95193.28
2023-02-23T22:10:34.850Z,95187.38
2023-02-23T22:13:03.957Z,95178.25
2023-02-23T22:15:33.531Z,95103.69
2023-02-23T22:18:02.273Z,95184.16
2023-02-23T22:20:32.335Z,95188.97
2023-02-23T22:23:01.342Z,95180.94
2023-02-23T22:25:29.729Z,95181.75
2023-02-23T22:27:58.031Z,95182.53
2023-02-23T22:30:28.455Z,95173.44
2023-02-23T22:32:57.196Z,95179.31
2023-02-23T22:35:25.578Z,95171.28
2023-02-23T22:37:55.294Z,95168.59
2023-02-23T22:40:24.674Z,95163.78
2023-02-23T22:42:54.693Z,95177.16
2023-02-23T22:45:23.255Z,95167.78
2023-02-23T22:47:51.942Z,95169.13
2023-02-23T22:50:20.338Z,95173.97
2023-02-23T22:52:48.640Z,95170.75
2023-02-23T22:55:19.415Z,95108.53
2023-02-23T22:57:47.792Z,95171.81
2023-02-23T23:00:20.015Z,95136.13
2023-02-23T23:02:48.574Z,95153.03
2023-02-23T23:05:17.586Z,95111.16
2023-02-23T23:07:47.877Z,95152.25
2023-02-23T23:10:18.769Z,95135.88
2023-02-23T23:12:47.183Z,95154.91
2023-02-23T23:15:19.457Z,95134.53
2023-02-23T23:17:49.687Z,95144.75
2023-02-23T23:20:25.717Z,95149.81
2023-02-23T23:22:54.906Z,95138.84
2023-02-23T23:25:24.964Z,95136.16
2023-02-23T23:27:56.471Z,95134.00
2023-02-23T23:30:29.293Z,95138.56
2023-02-23T23:32:58.472Z,95131.31
2023-02-23T23:35:26.969Z,95133.72
2023-02-23T23:37:56.966Z,95132.66
2023-02-23T23:40:26.664Z,95125.44
2023-02-23T23:42:55.953Z,95127.81
2023-02-23T23:45:25.591Z,95124.63
2023-02-23T23:47:54.310Z,95123.00
2023-02-23T23:50:27.099Z,95116.56
2023-02-23T23:52:57.193Z,95117.09
2023-02-23T23:55:31.632Z,95127.53
2023-02-23T23:58:00.841Z,95121.91
